createdAt,value
2022-12-05T00:01:03.090Z,21.73
2022-12-05T00:03:29.934Z,23.20
2022-12-05T00:05:56.691Z,20.83
2022-12-05T00:08:23.491Z,19.75
2022-12-05T00:10:50.298Z,18.15
2022-12-05T00:13:17.096Z,22.38
2022-12-05T00:15:43.890Z,19.40
2022-12-05T00:18:10.669Z,21.17
2022-12-05T00:20:37.504Z,18.17
2022-12-05T00:23:04.319Z,20.40
2022-12-05T00:25:31.098Z,20.77
2022-12-05T00:27:57.882Z,19.92
2022-12-05T00:30:24.708Z,18.25
2022-12-05T00:32:51.492Z,18.08
2022-12-05T00:35:18.266Z,16.05
2022-12-05T00:37:45.212Z,26.23
2022-12-05T00:40:12.100Z,18.58
2022-12-05T00:42:38.915Z,25.15
2022-12-05T00:45:06.340Z,19.85
2022-12-05T00:47:37.285Z,19.08
2022-12-05T00:50:05.486Z,25.88
2022-12-05T00:52:32.338Z,25.25
2022-12-05T00:54:59.154Z,19.08
2022-12-05T00:57:25.943Z,20.00
2022-12-05T00:59:53.357Z,26.52
2022-12-05T01:02:20.159Z,22.60
2022-12-05T01:04:46.984Z,23.08
2022-12-05T01:07:13.819Z,22.98
2022-12-05T01:09:40.630Z,27.13
2022-12-05T01:12:07.757Z,20.42
2022-12-05T01:14:35.009Z,22.77
2022-12-05T01:17:01.973Z,19.40
2022-12-05T01:19:31.558Z,19.67
2022-12-05T01:21:58.986Z,22.08
2022-12-05T01:24:27.835Z,25.38
2022-12-05T01:26:55.412Z,27.92
2022-12-05T01:29:23.819Z,24.80
2022-12-05T01:31:51.382Z,18.27
2022-12-05T01:34:19.173Z,21.23
2022-12-05T01:36:46.734Z,21.92
2022-12-05T01:39:13.937Z,20.02
2022-12-05T01:41:47.043Z,24.52
2022-12-05T01:44:13.917Z,23.30
2022-12-05T01:46:49.170Z,24.98
2022-12-05T01:49:20.306Z,18.67
2022-12-05T01:51:54.181Z,22.40
2022-12-05T01:54:22.903Z,17.30
2022-12-05T01:57:03.549Z,26.45
2022-12-05T01:59:34.620Z,30.77
2022-12-05T02:02:02.068Z,24.45
2022-12-05T02:04:29.254Z,21.67
2022-12-05T02:06:56.099Z,24.52
2022-12-05T02:09:23.610Z,25.70
2022-12-05T02:11:59.382Z,17.90
2022-12-05T02:14:45.971Z,25.52
2022-12-05T02:17:35.893Z,19.85
2022-12-05T02:20:16.397Z,24.73
2022-12-05T02:23:08.298Z,26.08
2022-12-05T02:25:53.090Z,21.83
2022-12-05T02:28:32.006Z,27.55
2022-12-05T02:31:07.875Z,23.70
2022-12-05T02:33:43.507Z,24.65
2022-12-05T02:36:21.882Z,20.02
2022-12-05T02:39:03.711Z,23.48
2022-12-05T02:41:40.106Z,22.40
2022-12-05T02:44:29.333Z,27.95
2022-12-05T02:46:58.354Z,26.20
2022-12-05T02:49:30.350Z,24.90
2022-12-05T02:51:59.823Z,32.70
2022-12-05T02:54:31.466Z,25.55
2022-12-05T02:57:00.330Z,23.23
2022-12-05T02:59:27.566Z,21.67
2022-12-05T03:01:54.582Z,23.60
2022-12-05T03:04:24.231Z,20.95
2022-12-05T03:07:07.832Z,22.30
2022-12-05T03:09:43.503Z,28.75
2022-12-05T03:12:18.245Z,24.17
2022-12-05T03:14:50.847Z,20.25
2022-12-05T03:17:22.135Z,24.70
2022-12-05T03:20:09.165Z,22.00
2022-12-05T03:22:49.367Z,25.83
2022-12-05T03:25:17.214Z,27.50
2022-12-05T03:27:49.705Z,25.38
2022-12-05T03:30:18.964Z,28.02
2022-12-05T03:33:03.838Z,28.35
2022-12-05T03:35:36.901Z,27.25
2022-12-05T03:38:13.039Z,28.80
2022-12-05T03:40:53.748Z,32.97
2022-12-05T03:43:40.075Z,25.92
2022-12-05T03:46:32.015Z,27.77
2022-12-05T03:49:07.756Z,23.73
2022-12-05T03:51:48.110Z,24.20
2022-12-05T03:54:32.509Z,21.33
2022-12-05T03:57:21.161Z,25.10
2022-12-05T03:59:54.781Z,21.67
2022-12-05T04:02:45.333Z,29.50
2022-12-05T04:05:21.107Z,24.83
2022-12-05T04:08:01.288Z,22.88
2022-12-05T04:10:48.326Z,19.13
2022-12-05T04:13:35.328Z,22.05
2022-12-05T04:16:32.250Z,24.40
2022-12-05T04:19:19.314Z,22.23
2022-12-05T04:21:50.684Z,27.60
2022-12-05T04:24:40.766Z,26.17
2022-12-05T04:27:16.368Z,22.08
2022-12-05T04:29:52.743Z,18.00
2022-12-05T04:32:22.038Z,24.02
2022-12-05T04:34:56.850Z,29.33
2022-12-05T04:37:26.377Z,20.83
2022-12-05T04:40:04.380Z,23.80
2022-12-05T04:42:34.705Z,27.20
2022-12-05T04:45:10.695Z,24.20
2022-12-05T04:47:46.157Z,26.15
2022-12-05T04:50:16.406Z,25.40
2022-12-05T04:52:48.947Z,23.27
2022-12-05T04:55:20.608Z,19.50
2022-12-05T04:57:57.660Z,30.33
2022-12-05T05:00:24.889Z,22.88
2022-12-05T05:02:54.147Z,18.45
2022-12-05T05:05:21.920Z,25.02
2022-12-05T05:07:55.574Z,25.10
2022-12-05T05:10:48.396Z,31.17
2022-12-05T05:13:15.187Z,20.27
2022-12-05T05:15:42.116Z,22.83
2022-12-05T05:18:10.304Z,25.65
2022-12-05T05:20:37.269Z,17.05
2022-12-05T05:23:04.080Z,22.33
2022-12-05T05:25:30.921Z,17.73
2022-12-05T05:27:57.744Z,21.95
2022-12-05T05:30:26.108Z,31.50
2022-12-05T05:32:53.390Z,15.98
2022-12-05T05:35:21.560Z,22.80
2022-12-05T05:37:48.430Z,21.00
2022-12-05T05:40:15.332Z,23.50
2022-12-05T05:42:47.218Z,18.98
2022-12-05T05:45:15.864Z,17.75
2022-12-05T05:47:43.269Z,19.52
2022-12-05T05:50:13.842Z,22.88
2022-12-05T05:52:43.306Z,15.52
2022-12-05T05:55:10.525Z,20.33
2022-12-05T05:57:37.500Z,22.80
2022-12-05T06:00:08.248Z,18.23
2022-12-05T06:02:36.433Z,19.35
2022-12-05T06:05:04.805Z,15.35
2022-12-05T06:07:32.586Z,17.88
2022-12-05T06:09:59.736Z,17.88
2022-12-05T06:12:26.903Z,21.27
2022-12-05T06:14:54.279Z,12.35
2022-12-05T06:17:21.140Z,18.58
2022-12-05T06:19:48.054Z,21.70
2022-12-05T06:22:14.905Z,13.50
2022-12-05T06:24:41.686Z,15.38
2022-12-05T06:27:08.472Z,16.40
2022-12-05T06:29:35.715Z,14.05
2022-12-05T06:32:02.925Z,11.75
2022-12-05T06:34:30.008Z,13.85
2022-12-05T06:36:56.839Z,16.05
2022-12-05T06:39:23.640Z,11.43
2022-12-05T06:41:50.719Z,14.65
2022-12-05T06:44:17.514Z,11.50
2022-12-05T06:46:44.338Z,16.90
2022-12-05T06:49:11.456Z,18.13
2022-12-05T06:51:38.283Z,16.10
2022-12-05T06:54:05.408Z,21.35
2022-12-05T06:56:32.219Z,10.93
2022-12-05T06:58:59.032Z,12.15
2022-12-05T07:01:42.054Z,14.23
2022-12-05T07:04:20.177Z,14.25
2022-12-05T07:06:51.014Z,12.75
2022-12-05T07:09:43.742Z,11.93
2022-12-05T07:12:10.732Z,13.00
2022-12-05T07:14:47.432Z,12.38
2022-12-05T07:17:15.263Z,11.43
2022-12-05T07:19:42.124Z,9.68
2022-12-05T07:22:13.849Z,13.60
2022-12-05T07:24:43.082Z,13.15
2022-12-05T07:27:09.905Z,10.95
2022-12-05T07:29:36.747Z,11.95
2022-12-05T07:32:04.378Z,9.85
2022-12-05T07:34:31.355Z,11.00
2022-12-05T07:36:58.147Z,7.55
2022-12-05T07:39:24.936Z,6.32
2022-12-05T07:41:51.738Z,6.88
2022-12-05T07:44:18.584Z,4.30
2022-12-05T07:46:45.458Z,4.30
2022-12-05T07:49:12.379Z,6.57
2022-12-05T07:51:39.228Z,4.50
2022-12-05T07:54:06.842Z,3.10
2022-12-05T07:56:34.025Z,7.40
2022-12-05T07:59:00.805Z,4.28
2022-12-05T08:01:29.467Z,4.60
2022-12-05T08:03:58.334Z,3.63
2022-12-05T08:06:27.748Z,4.63
2022-12-05T08:08:55.227Z,6.13
2022-12-05T08:11:25.354Z,9.05
2022-12-05T08:13:53.114Z,4.25
2022-12-05T08:16:23.402Z,3.92
2022-12-05T08:18:55.951Z,3.90
2022-12-05T08:21:23.180Z,4.47
2022-12-05T08:23:49.978Z,3.80
2022-12-05T08:26:28.630Z,2.75
2022-12-05T08:28:58.611Z,3.08
2022-12-05T08:31:28.949Z,2.95
2022-12-05T08:33:59.314Z,2.22
2022-12-05T08:36:28.775Z,4.65
2022-12-05T08:39:00.856Z,3.13
2022-12-05T08:41:30.170Z,3.40
2022-12-05T08:43:59.539Z,4.72
2022-12-05T08:46:26.514Z,3.70
2022-12-05T08:48:53.343Z,3.67
2022-12-05T08:51:20.164Z,3.92
2022-12-05T08:53:47.190Z,7.07
2022-12-05T08:56:14.086Z,4.80
2022-12-05T08:58:41.727Z,3.28
2022-12-05T09:01:12.169Z,3.40
2022-12-05T09:03:46.076Z,4.70
2022-12-05T09:06:18.829Z,5.10
2022-12-05T09:08:46.582Z,6.45
2022-12-05T09:11:18.757Z,4.63
2022-12-05T09:13:46.769Z,4.97
2022-12-05T09:16:22.774Z,4.60
2022-12-05T09:18:51.236Z,4.50
2022-12-05T09:21:23.484Z,6.43
2022-12-05T09:23:51.484Z,4.05
2022-12-05T09:26:21.783Z,5.07
2022-12-05T09:28:48.832Z,6.75
2022-12-05T09:31:19.777Z,4.30
2022-12-05T09:33:47.619Z,3.13
2022-12-05T09:36:20.157Z,4.03
2022-12-05T09:38:47.532Z,4.72
2022-12-05T09:41:51.887Z,13.65
2022-12-05T09:45:03.555Z,6.35
2022-12-05T09:47:51.654Z,4.70
2022-12-05T09:50:21.848Z,4.88
2022-12-05T09:52:51.539Z,6.18
2022-12-05T09:55:20.031Z,5.20
2022-12-05T09:57:58.478Z,7.60
2022-12-05T10:00:28.472Z,6.05
2022-12-05T10:03:02.542Z,6.68
2022-12-05T10:05:50.017Z,6.20
2022-12-05T10:08:26.394Z,5.20
2022-12-05T10:11:01.787Z,8.85
2022-12-05T10:13:57.971Z,4.32
2022-12-05T10:17:02.346Z,10.05
2022-12-05T10:19:36.949Z,8.20
2022-12-05T10:22:20.677Z,7.93
2022-12-05T10:24:54.180Z,5.28
2022-12-05T10:27:40.369Z,6.30
2022-12-05T10:30:16.173Z,6.32
2022-12-05T10:32:56.842Z,5.50
2022-12-05T10:35:28.372Z,9.13
2022-12-05T10:37:59.089Z,10.38
2022-12-05T10:40:33.468Z,8.55
2022-12-05T10:45:27.438Z,6.63
2022-12-05T10:47:57.172Z,15.23
2022-12-05T10:50:29.402Z,5.88
2022-12-05T10:52:57.818Z,11.35
2022-12-05T10:55:29.906Z,5.47
2022-12-05T10:58:23.862Z,9.10
2022-12-05T11:00:58.100Z,7.22
2022-12-05T11:03:40.312Z,5.07
2022-12-05T11:06:18.972Z,5.00
2022-12-05T11:09:04.524Z,8.15
2022-12-05T11:11:33.685Z,6.88
2022-12-05T11:14:29.834Z,6.47
2022-12-05T11:16:59.345Z,7.40
2022-12-05T11:19:29.476Z,9.45
2022-12-05T11:21:59.958Z,9.23
2022-12-05T11:24:35.575Z,6.90
2022-12-05T11:27:17.821Z,15.40
2022-12-05T11:30:27.970Z,8.02
2022-12-05T11:33:21.328Z,10.40
2022-12-05T11:35:51.919Z,7.97
2022-12-05T11:38:21.828Z,6.18
2022-12-05T11:40:54.980Z,7.93
2022-12-05T11:43:39.869Z,8.63
2022-12-05T11:46:06.902Z,5.88
2022-12-05T11:48:48.509Z,5.30
2022-12-05T11:51:21.784Z,7.95
2022-12-05T11:53:48.640Z,7.18
2022-12-05T11:56:35.301Z,5.60
2022-12-05T11:59:24.873Z,7.07
2022-12-05T12:02:34.622Z,5.30
2022-12-05T12:05:13.949Z,5.63
2022-12-05T12:08:00.013Z,6.13
2022-12-05T12:10:37.128Z,5.55
2022-12-05T12:13:12.975Z,4.95
2022-12-05T12:15:46.665Z,6.50
2022-12-05T12:18:41.456Z,3.35
2022-12-05T12:21:11.320Z,5.18
2022-12-05T12:23:50.203Z,3.20
2022-12-05T12:26:55.955Z,7.20
2022-12-05T12:30:03.550Z,6.97
2022-12-05T12:32:48.397Z,8.65
2022-12-05T12:35:37.284Z,4.00
2022-12-05T12:38:29.053Z,1.98
2022-12-05T12:41:04.779Z,3.60
2022-12-05T12:44:09.269Z,4.40
2022-12-05T12:46:59.593Z,4.40
2022-12-05T12:49:56.148Z,3.63
2022-12-05T12:52:26.062Z,4.43
2022-12-05T12:55:26.747Z,7.53
2022-12-05T12:58:18.640Z,4.57
2022-12-05T13:01:10.506Z,3.80
2022-12-05T13:03:54.027Z,6.25
2022-12-05T13:06:47.816Z,4.32
2022-12-05T13:09:29.343Z,3.05
2022-12-05T13:11:59.663Z,2.70
2022-12-05T13:14:28.640Z,4.25
2022-12-05T13:16:56.624Z,4.10
2022-12-05T13:19:38.156Z,3.42
2022-12-05T13:22:07.000Z,4.25
2022-12-05T13:24:33.998Z,3.05
2022-12-05T13:27:05.289Z,3.35
2022-12-05T13:30:09.404Z,4.25
2022-12-05T13:32:41.819Z,1.92
2022-12-05T13:35:51.268Z,4.20
2022-12-05T13:38:42.251Z,3.72
2022-12-05T13:41:27.696Z,4.43
2022-12-05T13:44:05.960Z,3.42
2022-12-05T13:46:36.426Z,3.70
2022-12-05T13:49:17.442Z,6.88
2022-12-05T13:51:45.347Z,4.53
2022-12-05T13:54:16.257Z,2.80
2022-12-05T13:56:53.933Z,3.47
2022-12-05T13:59:59.089Z,3.85
2022-12-05T14:02:44.486Z,5.90
2022-12-05T14:05:14.330Z,3.78
2022-12-05T14:08:00.893Z,2.38
2022-12-05T14:10:36.478Z,3.72
2022-12-05T14:13:27.129Z,3.72
2022-12-05T14:15:55.119Z,2.88
2022-12-05T14:18:33.280Z,2.20
2022-12-05T14:21:46.558Z,2.70
2022-12-05T14:24:38.459Z,2.55
2022-12-05T14:27:35.753Z,3.10
2022-12-05T14:30:17.296Z,2.78
2022-12-05T14:32:44.370Z,5.68
2022-12-05T14:35:31.404Z,3.65
2022-12-05T14:38:02.822Z,2.63
2022-12-05T14:40:39.211Z,3.17
2022-12-05T14:43:06.064Z,4.47
2022-12-05T14:45:39.106Z,2.95
2022-12-05T14:48:26.821Z,5.88
2022-12-05T14:50:57.258Z,1.75
2022-12-05T14:53:35.659Z,2.20
2022-12-05T14:56:19.553Z,2.00
2022-12-05T14:58:51.780Z,4.30
2022-12-05T15:01:26.479Z,4.00
2022-12-05T15:03:59.223Z,3.20
2022-12-05T15:06:26.837Z,4.03
2022-12-05T15:09:14.581Z,3.45
2022-12-05T15:11:44.199Z,2.25
2022-12-05T15:14:23.237Z,2.10
2022-12-05T15:16:53.763Z,2.55
2022-12-05T15:19:33.307Z,4.43
2022-12-05T15:22:06.150Z,4.68
2022-12-05T15:24:38.652Z,2.95
2022-12-05T15:27:11.595Z,2.55
2022-12-05T15:29:40.366Z,3.75
2022-12-05T15:32:13.258Z,5.57
2022-12-05T15:34:45.877Z,5.28
2022-12-05T15:37:24.789Z,3.38
2022-12-05T15:39:54.766Z,4.88
2022-12-05T15:42:30.225Z,8.73
2022-12-05T15:45:16.318Z,5.20
2022-12-05T15:47:45.384Z,3.92
2022-12-05T15:50:18.694Z,3.58
2022-12-05T15:53:16.029Z,3.28
2022-12-05T15:55:56.382Z,2.38
2022-12-05T15:58:31.515Z,2.90
2022-12-05T16:01:04.235Z,3.83
2022-12-05T16:03:44.730Z,1.88
2022-12-05T16:06:25.034Z,4.35
2022-12-05T16:08:52.205Z,3.80
2022-12-05T16:11:19.444Z,2.53
2022-12-05T16:13:56.752Z,2.33
2022-12-05T16:16:27.628Z,3.25
2022-12-05T16:18:56.830Z,2.85
2022-12-05T16:21:38.863Z,8.77
2022-12-05T16:24:27.819Z,6.43
2022-12-05T16:27:01.055Z,3.20
2022-12-05T16:29:30.667Z,10.02
2022-12-05T16:32:05.873Z,3.25
2022-12-05T16:34:35.262Z,4.63
2022-12-05T16:37:02.866Z,4.35
2022-12-05T16:39:29.762Z,3.22
2022-12-05T16:41:56.685Z,2.95
2022-12-05T16:44:48.512Z,6.05
2022-12-05T16:47:24.073Z,4.72
2022-12-05T16:49:51.185Z,4.20
2022-12-05T16:52:18.532Z,3.05
2022-12-05T16:54:48.227Z,4.78
2022-12-05T16:57:16.158Z,2.55
2022-12-05T16:59:44.057Z,4.95
2022-12-05T17:02:14.206Z,5.10
2022-12-05T17:04:41.678Z,4.15
2022-12-05T17:07:08.939Z,4.68
2022-12-05T17:09:35.834Z,3.42
2022-12-05T17:12:18.177Z,5.07
2022-12-05T17:14:50.180Z,5.32
2022-12-05T17:17:18.290Z,4.88
2022-12-05T17:19:45.280Z,2.80
2022-12-05T17:22:14.377Z,3.67
2022-12-05T17:24:41.481Z,5.93
2022-12-05T17:27:12.512Z,5.35
2022-12-05T17:29:42.152Z,3.40
2022-12-05T17:32:10.816Z,3.47
2022-12-05T17:34:37.617Z,2.63
2022-12-05T17:37:04.419Z,4.30
2022-12-05T17:39:31.296Z,2.88
2022-12-05T17:41:58.103Z,4.30
2022-12-05T17:44:25.258Z,2.80
2022-12-05T17:46:52.189Z,4.47
2022-12-05T17:49:20.047Z,4.15
2022-12-05T17:54:33.867Z,2.45
2022-12-05T17:57:00.803Z,4.32
2022-12-05T17:59:27.714Z,4.05
2022-12-05T18:01:54.554Z,6.75
2022-12-05T18:04:23.467Z,7.57
2022-12-05T18:06:51.187Z,6.22
2022-12-05T18:09:18.421Z,5.32
2022-12-05T18:11:45.287Z,3.75
2022-12-05T18:14:12.223Z,7.47
2022-12-05T18:16:39.355Z,8.57
2022-12-05T18:19:08.237Z,5.50
2022-12-05T18:21:35.648Z,10.10
2022-12-05T18:24:02.504Z,4.75
2022-12-05T18:26:29.410Z,4.80
2022-12-05T18:28:57.660Z,5.22
2022-12-05T18:31:25.130Z,5.07
2022-12-05T18:33:51.950Z,6.72
2022-12-05T18:36:20.947Z,5.57
2022-12-05T18:38:53.405Z,6.50
2022-12-05T18:41:23.226Z,7.97
2022-12-05T18:43:50.734Z,8.07
2022-12-05T18:46:17.882Z,4.68
2022-12-05T18:48:47.691Z,6.30
2022-12-05T18:51:17.400Z,7.18
2022-12-05T18:53:51.751Z,9.98
2022-12-05T18:56:22.667Z,10.73
2022-12-05T18:58:55.570Z,7.28
2022-12-05T19:01:22.817Z,8.32
2022-12-05T19:03:50.982Z,4.68
2022-12-05T19:06:24.059Z,8.63
2022-12-05T19:08:54.315Z,11.43
2022-12-05T19:11:21.515Z,6.25
2022-12-05T19:13:48.458Z,9.40
2022-12-05T19:16:18.684Z,7.28
2022-12-05T19:18:47.237Z,7.70
2022-12-05T19:21:14.264Z,10.05
2022-12-05T19:23:41.174Z,5.15
2022-12-05T19:26:09.761Z,8.82
2022-12-05T19:28:37.894Z,3.85
2022-12-05T19:31:11.136Z,6.13
2022-12-05T19:33:43.258Z,8.50
2022-12-05T19:36:15.243Z,8.32
2022-12-05T19:38:44.062Z,10.30
2022-12-05T19:41:12.843Z,7.53
2022-12-05T19:43:40.662Z,6.93
2022-12-05T19:46:11.672Z,7.00
2022-12-05T19:48:39.177Z,3.58
2022-12-05T19:51:06.139Z,5.35
2022-12-05T19:53:36.655Z,7.93
2022-12-05T19:56:08.875Z,5.65
2022-12-05T19:58:36.867Z,7.85
2022-12-05T20:01:19.571Z,6.07
2022-12-05T20:03:52.277Z,6.15
2022-12-05T20:06:19.629Z,5.80
2022-12-05T20:08:47.513Z,6.30
2022-12-05T20:11:19.947Z,6.63
2022-12-05T20:13:48.127Z,7.82
2022-12-05T20:16:18.468Z,7.25
2022-12-05T20:18:48.273Z,6.68
2022-12-05T20:21:18.084Z,5.43
2022-12-05T20:23:45.162Z,11.70
2022-12-05T20:26:18.231Z,7.18
2022-12-05T20:28:45.579Z,9.70
2022-12-05T20:31:18.162Z,6.68
2022-12-05T20:33:45.514Z,10.82
2022-12-05T20:36:15.044Z,7.53
2022-12-05T20:38:42.411Z,10.38
2022-12-05T20:41:12.187Z,6.47
2022-12-05T20:43:39.056Z,5.55
2022-12-05T20:46:11.257Z,6.55
2022-12-05T20:48:38.251Z,8.38
2022-12-05T20:51:16.312Z,4.63
2022-12-05T20:53:44.931Z,6.32
2022-12-05T20:56:17.604Z,6.18
2022-12-05T20:58:50.371Z,5.32
2022-12-05T21:01:19.059Z,8.25
2022-12-05T21:03:48.591Z,6.55
2022-12-05T21:06:22.376Z,6.10
2022-12-05T21:08:49.992Z,13.50
2022-12-05T21:11:16.888Z,9.15
2022-12-05T21:13:43.707Z,6.88
2022-12-05T21:16:16.686Z,7.20
2022-12-05T21:18:44.205Z,8.73
2022-12-05T21:21:16.399Z,8.57
2022-12-05T21:23:45.448Z,10.85
2022-12-05T21:26:15.959Z,8.45
2022-12-05T21:28:44.388Z,9.77
2022-12-05T21:31:14.675Z,9.93
2022-12-05T21:33:43.368Z,7.25
2022-12-05T21:36:10.260Z,6.18
2022-12-05T21:38:37.227Z,8.05
2022-12-05T21:41:05.507Z,9.43
2022-12-05T21:43:33.883Z,6.72
2022-12-05T21:46:01.195Z,10.60
2022-12-05T21:48:28.453Z,7.18
2022-12-05T21:50:55.510Z,7.10
2022-12-05T21:53:22.838Z,8.07
2022-12-05T21:56:02.204Z,6.55
2022-12-05T21:58:29.484Z,5.57
2022-12-05T22:00:56.366Z,7.22
2022-12-05T22:03:23.680Z,6.65
2022-12-05T22:05:50.604Z,7.72
2022-12-05T22:08:17.519Z,10.05
2022-12-05T22:10:44.449Z,8.93
2022-12-05T22:13:11.319Z,6.45
2022-12-05T22:15:38.235Z,9.93
2022-12-05T22:18:05.347Z,7.40
2022-12-05T22:20:32.139Z,9.27
2022-12-05T22:22:58.944Z,6.35
2022-12-05T22:25:25.847Z,7.43
2022-12-05T22:27:55.176Z,9.52
2022-12-05T22:30:22.015Z,7.70
2022-12-05T22:32:49.011Z,10.70
2022-12-05T22:35:15.803Z,6.35
2022-12-05T22:37:42.712Z,11.60
2022-12-05T22:40:10.241Z,6.90
2022-12-05T22:42:37.212Z,5.90
2022-12-05T22:45:04.360Z,8.85
2022-12-05T22:47:31.163Z,6.60
2022-12-05T22:49:58.154Z,5.65
2022-12-05T22:52:25.137Z,8.07
2022-12-05T22:54:51.983Z,15.57
2022-12-05T22:57:18.757Z,5.68
2022-12-05T22:59:45.716Z,6.97
2022-12-05T23:02:15.672Z,9.38
2022-12-05T23:04:42.572Z,7.45
2022-12-05T23:07:09.577Z,8.52
2022-12-05T23:09:36.471Z,7.60
2022-12-05T23:12:03.476Z,6.22
2022-12-05T23:14:30.383Z,6.18
2022-12-05T23:16:57.385Z,5.85
2022-12-05T23:19:24.263Z,5.20
2022-12-05T23:21:51.181Z,4.93
2022-12-05T23:24:18.175Z,11.73
2022-12-05T23:26:46.215Z,4.03
2022-12-05T23:29:14.471Z,8.73
2022-12-05T23:31:42.172Z,7.60
2022-12-05T23:34:09.334Z,5.88
2022-12-05T23:36:36.561Z,6.63
2022-12-05T23:39:04.225Z,7.18
2022-12-05T23:41:31.239Z,6.43
2022-12-05T23:43:58.249Z,7.00
2022-12-05T23:46:27.432Z,6.00
2022-12-05T23:48:55.216Z,6.13
2022-12-05T23:51:24.568Z,6.40
2022-12-05T23:53:58.079Z,5.78
2022-12-05T23:56:31.611Z,6.20
2022-12-05T23:58:59.304Z,8.40
